Time;durP1;ratioP1;P1;durP2;ratioP2;P2;SDS_P1;SDS_P2;PMS_P1;PMS_P2;Temp;Humidity;BMP_temperature;BMP_pressure;BME280_temperature;BME280_humidity;BME280_pressure;Samples;Min_cycle;Max_cycle;Signal;HPM_P1;HPM_P2
2024/02/16 00:00:44;;;;;;;6.93;3.33;;;;;;;;;;10539637;27;20079;-74
2024/02/16 00:05:47;;;;;;;11.05;3.72;;;;;;;;;;10559579;27;20102;-74
2024/02/16 00:10:51;;;;;;;6.95;3.65;;;;;;;;;;10557103;27;20378;-75
2024/02/16 00:15:53;;;;;;;9.45;3.38;;;;;;;;;;10554625;27;20117;-75
2024/02/16 00:20:56;;;;;;;8.10;3.70;;;;;;;;;;10556975;27;20066;-72
2024/02/16 00:26:01;;;;;;;9.02;3.42;;;;;;;;;;10560796;27;20050;-74
2024/02/16 00:31:05;;;;;;;8.55;3.80;;;;;;;;;;10554995;27;20047;-75
2024/02/16 00:36:09;;;;;;;9.70;3.80;;;;;;;;;;10554843;27;20062;-75
2024/02/16 00:41:19;;;;;;;8.30;3.35;;;;;;;;;;10552580;27;20404;-75
2024/02/16 00:46:22;;;;;;;10.38;3.70;;;;;;;;;;10562664;27;20048;-74
2024/02/16 00:51:25;;;;;;;8.70;3.75;;;;;;;;;;10556443;27;20114;-75
2024/02/16 00:56:30;;;;;;;7.23;3.50;;;;;;;;;;10556815;27;20436;-75
2024/02/16 01:01:33;;;;;;;7.80;3.17;;;;;;;;;;10549571;28;20044;-74
2024/02/16 01:06:35;;;;;;;7.85;3.33;;;;;;;;;;10553150;27;20378;-76
2024/02/16 01:11:41;;;;;;;6.13;2.05;;;;;;;;;;10557530;27;20056;-75
2024/02/16 01:16:43;;;;;;;8.05;3.40;;;;;;;;;;10549893;28;20055;-75
2024/02/16 01:21:47;;;;;;;5.57;2.55;;;;;;;;;;10552179;28;20036;-75
2024/02/16 01:26:51;;;;;;;5.93;3.20;;;;;;;;;;10535814;28;20047;-75
2024/02/16 01:31:54;;;;;;;6.90;3.72;;;;;;;;;;10545976;28;20208;-73
2024/02/16 01:36:58;;;;;;;6.70;3.40;;;;;;;;;;10525390;28;20039;-74
2024/02/16 01:42:02;;;;;;;6.38;3.35;;;;;;;;;;10564538;27;20068;-75
2024/02/16 01:47:04;;;;;;;6.75;3.58;;;;;;;;;;10562144;27;20105;-75
2024/02/16 01:52:08;;;;;;;7.07;3.45;;;;;;;;;;10559728;27;20131;-73
2024/02/16 01:57:12;;;;;;;;;;;;;;;;;;10562808;27;20075;-75
2024/02/16 02:02:16;;;;;;;7.95;2.88;;;;;;;;;;10556257;28;19926;-75
2024/02/16 02:07:21;;;;;;;2.40;1.42;;;;;;;;;;10547401;27;20483;-73
2024/02/16 02:12:24;;;;;;;8.80;3.25;;;;;;;;;;10565068;27;20036;-73
2024/02/16 02:17:28;;;;;;;8.20;3.85;;;;;;;;;;10558243;28;20126;-75
2024/02/16 02:22:32;;;;;;;11.23;3.15;;;;;;;;;;10563773;27;20062;-75
2024/02/16 02:27:35;;;;;;;5.88;3.13;;;;;;;;;;10561885;27;20123;-74
2024/02/16 02:32:38;;;;;;;3.20;1.77;;;;;;;;;;10560401;27;20135;-75
2024/02/16 02:37:42;;;;;;;8.33;3.80;;;;;;;;;;10545707;27;20058;-75
2024/02/16 02:42:45;;;;;;;;;;;;;;;;;;10559927;27;20063;-75
2024/02/16 02:47:48;;;;;;;7.05;3.58;;;;;;;;;;10560193;27;20510;-75
2024/02/16 02:52:52;;;;;;;8.35;3.45;;;;;;;;;;10553892;27;20051;-75
2024/02/16 02:57:54;;;;;;;7.72;4.15;;;;;;;;;;10553090;27;20060;-74
2024/02/16 03:02:57;;;;;;;7.65;3.97;;;;;;;;;;10558071;28;20055;-74
2024/02/16 03:08:04;;;;;;;6.03;3.65;;;;;;;;;;10576052;27;20052;-74
2024/02/16 03:13:08;;;;;;;7.13;3.63;;;;;;;;;;10555785;27;20036;-71
2024/02/16 03:18:11;;;;;;;;;;;;;;;;;;10554798;27;20047;-74
2024/02/16 03:23:15;;;;;;;7.50;3.22;;;;;;;;;;10554947;27;19927;-74
2024/02/16 03:28:18;;;;;;;8.45;3.30;;;;;;;;;;10562917;27;20678;-75
2024/02/16 03:33:21;;;;;;;7.20;3.90;;;;;;;;;;10551840;27;20066;-74
2024/02/16 03:38:26;;;;;;;8.03;3.40;;;;;;;;;;10561127;27;20032;-75
2024/02/16 03:43:28;;;;;;;6.97;3.78;;;;;;;;;;10558524;27;20420;-76
2024/02/16 03:48:31;;;;;;;7.85;3.53;;;;;;;;;;10560016;27;20140;-73
2024/02/16 03:53:35;;;;;;;7.20;3.22;;;;;;;;;;10556236;27;20174;-74
2024/02/16 03:58:38;;;;;;;8.70;3.10;;;;;;;;;;10545886;28;20048;-73
2024/02/16 04:03:41;;;;;;;6.80;3.28;;;;;;;;;;10559170;27;20063;-74
2024/02/16 04:08:45;;;;;;;10.55;3.65;;;;;;;;;;10546859;28;20043;-76
2024/02/16 04:13:49;;;;;;;6.38;3.25;;;;;;;;;;10562896;27;20089;-74
2024/02/16 04:18:52;;;;;;;9.90;3.57;;;;;;;;;;10564365;27;20075;-74
2024/02/16 04:23:56;;;;;;;6.07;2.83;;;;;;;;;;10557059;27;20051;-74
2024/02/16 04:28:59;;;;;;;8.02;2.88;;;;;;;;;;10554861;28;20642;-74
2024/02/16 04:34:02;;;;;;;4.97;2.95;;;;;;;;;;10559195;28;20036;-74
2024/02/16 04:39:07;;;;;;;8.00;3.55;;;;;;;;;;10558562;27;20048;-75
2024/02/16 04:44:10;;;;;;;8.85;3.35;;;;;;;;;;10569994;27;20095;-74
2024/02/16 04:49:13;;;;;;;7.88;3.47;;;;;;;;;;10555474;27;20040;-75
2024/02/16 04:54:17;;;;;;;7.47;2.90;;;;;;;;;;10551403;27;20042;-73
2024/02/16 04:59:21;;;;;;;5.10;3.28;;;;;;;;;;10558226;27;20071;-75
2024/02/16 05:04:23;;;;;;;11.37;4.03;;;;;;;;;;10553212;27;20088;-74
2024/02/16 05:09:28;;;;;;;6.88;3.30;;;;;;;;;;10555607;27;20405;-75
2024/02/16 05:14:30;;;;;;;9.60;3.63;;;;;;;;;;10563648;27;20039;-74
2024/02/16 05:19:34;;;;;;;7.05;3.40;;;;;;;;;;10555482;28;20043;-74
2024/02/16 05:24:39;;;;;;;6.80;3.65;;;;;;;;;;10550372;28;20051;-74
2024/02/16 05:29:42;;;;;;;6.60;3.88;;;;;;;;;;10547863;28;20067;-74
2024/02/16 05:34:44;;;;;;;6.80;3.38;;;;;;;;;;10568296;28;20031;-75
2024/02/16 05:39:56;;;;;;;6.40;3.13;;;;;;;;;;10563669;28;20057;-75
2024/02/16 05:44:59;;;;;;;7.10;3.08;;;;;;;;;;10551644;28;20039;-75
2024/02/16 05:50:03;;;;;;;9.47;3.00;;;;;;;;;;10558231;28;20253;-75
2024/02/16 05:55:08;;;;;;;8.10;2.50;;;;;;;;;;10547126;28;20067;-75
2024/02/16 06:00:13;;;;;;;9.23;3.75;;;;;;;;;;10561014;28;20073;-75
2024/02/16 06:05:16;;;;;;;8.93;3.42;;;;;;;;;;10546691;28;20084;-74
2024/02/16 06:10:20;;;;;;;8.63;3.30;;;;;;;;;;10559480;28;20036;-74
2024/02/16 06:15:23;;;;;;;;;;;;;;;;;;10552124;28;20379;-74
2024/02/16 06:20:26;;;;;;;7.40;3.13;;;;;;;;;;10556022;28;19951;-73
2024/02/16 06:25:30;;;;;;;7.65;3.10;;;;;;;;;;10560387;27;20066;-75
2024/02/16 06:30:32;;;;;;;;;;;;;;;;;;10563135;27;20526;-76
2024/02/16 06:35:36;;;;;;;8.73;2.70;;;;;;;;;;10549586;28;19966;-74
2024/02/16 06:40:40;;;;;;;4.90;2.45;;;;;;;;;;10564400;27;20082;-74
2024/02/16 06:45:42;;;;;;;5.45;2.65;;;;;;;;;;10563285;27;20280;-75
2024/02/16 06:50:46;;;;;;;6.53;2.77;;;;;;;;;;10560342;27;20417;-76
2024/02/16 06:55:51;;;;;;;6.07;2.75;;;;;;;;;;10561825;27;20443;-74
2024/02/16 07:00:54;;;;;;;5.57;2.58;;;;;;;;;;10559705;27;20047;-75
2024/02/16 07:05:57;;;;;;;7.10;2.37;;;;;;;;;;10557649;27;20181;-75
2024/02/16 07:11:03;;;;;;;4.85;2.60;;;;;;;;;;10556008;27;20122;-75
2024/02/16 07:16:07;;;;;;;5.03;2.33;;;;;;;;;;10559628;27;20247;-76
2024/02/16 07:21:11;;;;;;;6.07;2.13;;;;;;;;;;10555982;27;20040;-73
2024/02/16 07:26:16;;;;;;;4.15;1.65;;;;;;;;;;10551459;27;20036;-74
2024/02/16 07:31:19;;;;;;;6.45;2.83;;;;;;;;;;10552208;27;20553;-75
2024/02/16 07:36:22;;;;;;;7.65;2.25;;;;;;;;;;10553721;27;20036;-75
2024/02/16 07:41:27;;;;;;;6.53;2.28;;;;;;;;;;10551050;27;20044;-75
2024/02/16 07:46:30;;;;;;;6.68;2.08;;;;;;;;;;10552676;28;20513;-75
2024/02/16 07:51:38;;;;;;;8.52;2.95;;;;;;;;;;10548602;28;20465;-74
2024/02/16 07:56:42;;;;;;;10.50;2.78;;;;;;;;;;10559905;27;20544;-74
2024/02/16 08:01:45;;;;;;;6.10;2.30;;;;;;;;;;10549704;28;20049;-75
2024/02/16 08:06:48;;;;;;;6.80;2.43;;;;;;;;;;10546234;27;20090;-74
2024/02/16 08:11:53;;;;;;;4.90;2.40;;;;;;;;;;10551680;28;20035;-74
2024/02/16 08:16:55;;;;;;;4.88;2.00;;;;;;;;;;10549305;28;20059;-77
2024/02/16 08:22:13;;;;;;;3.45;1.83;;;;;;;;;;10559906;27;20035;-75
2024/02/16 08:27:17;;;;;;;5.45;2.25;;;;;;;;;;10550305;27;20052;-75
2024/02/16 08:32:20;;;;;;;5.78;2.10;;;;;;;;;;10552130;27;20068;-75
2024/02/16 08:37:23;;;;;;;7.37;2.20;;;;;;;;;;10566772;27;20451;-76
2024/02/16 08:42:27;;;;;;;5.80;2.27;;;;;;;;;;10549860;28;20042;-75
2024/02/16 08:47:30;;;;;;;8.35;2.75;;;;;;;;;;10552214;28;20493;-75
2024/02/16 08:52:33;;;;;;;8.13;2.13;;;;;;;;;;10559481;28;20040;-75
2024/02/16 08:57:37;;;;;;;7.55;2.60;;;;;;;;;;10536173;28;20435;-75
2024/02/16 09:02:41;;;;;;;10.38;3.22;;;;;;;;;;10555295;27;20046;-75
2024/02/16 09:07:43;;;;;;;8.32;2.70;;;;;;;;;;10558810;27;20443;-74
2024/02/16 09:12:47;;;;;;;10.83;2.40;;;;;;;;;;10555625;27;20525;-75
2024/02/16 09:17:50;;;;;;;6.43;2.90;;;;;;;;;;10548840;28;20097;-75
2024/02/16 09:22:53;;;;;;;9.25;2.70;;;;;;;;;;10544267;28;20642;-75
2024/02/16 09:27:57;;;;;;;10.03;2.80;;;;;;;;;;10546241;28;20485;-75
2024/02/16 09:33:00;;;;;;;9.63;2.67;;;;;;;;;;10551364;28;20505;-75
2024/02/16 09:38:04;;;;;;;12.98;2.90;;;;;;;;;;10556575;28;20046;-76
2024/02/16 09:43:08;;;;;;;4.18;2.20;;;;;;;;;;10565228;28;20067;-75
2024/02/16 09:48:11;;;;;;;7.15;2.00;;;;;;;;;;10558921;28;20119;-76
2024/02/16 09:53:13;;;;;;;8.18;3.17;;;;;;;;;;10550453;28;20123;-75
2024/02/16 09:58:18;;;;;;;6.68;2.63;;;;;;;;;;10565706;27;20051;-75
2024/02/16 10:03:25;;;;;;;5.40;2.33;;;;;;;;;;10557305;27;20759;-75
2024/02/16 10:08:27;;;;;;;6.03;2.50;;;;;;;;;;10561955;27;20039;-75
2024/02/16 10:13:32;;;;;;;5.10;2.40;;;;;;;;;;10569757;27;20055;-76
2024/02/16 10:18:35;;;;;;;4.53;2.20;;;;;;;;;;10563673;27;20051;-75
2024/02/16 10:23:38;;;;;;;3.53;2.33;;;;;;;;;;10572412;27;20130;-76
2024/02/16 10:28:47;;;;;;;4.45;2.20;;;;;;;;;;10566137;27;20077;-76
2024/02/16 10:33:50;;;;;;;4.07;2.20;;;;;;;;;;10561644;27;20497;-76
2024/02/16 10:38:54;;;;;;;3.38;2.33;;;;;;;;;;10567064;27;20455;-75
2024/02/16 10:43:59;;;;;;;3.75;2.30;;;;;;;;;;10551923;28;20042;-75
2024/02/16 10:49:05;;;;;;;5.05;2.60;;;;;;;;;;10571928;27;20039;-75
2024/02/16 10:54:10;;;;;;;3.88;2.25;;;;;;;;;;10561948;27;20042;-76
2024/02/16 10:59:17;;;;;;;6.10;2.10;;;;;;;;;;10544217;27;20040;-76
2024/02/16 11:04:20;;;;;;;2.28;1.90;;;;;;;;;;10548909;27;20128;-77
2024/02/16 11:09:24;;;;;;;5.18;3.10;;;;;;;;;;10558625;28;20531;-74
2024/02/16 11:14:36;;;;;;;5.53;2.20;;;;;;;;;;10544479;28;20237;-75
2024/02/16 11:19:41;;;;;;;4.43;2.13;;;;;;;;;;10563052;27;20201;-77
2024/02/16 11:24:45;;;;;;;3.08;2.13;;;;;;;;;;10562852;27;20119;-75
2024/02/16 11:29:49;;;;;;;3.35;2.35;;;;;;;;;;10567852;27;20036;-76
2024/02/16 11:34:53;;;;;;;6.10;2.58;;;;;;;;;;10563512;27;20046;-76
2024/02/16 11:39:56;;;;;;;3.92;2.20;;;;;;;;;;10553718;28;20055;-78
2024/02/16 11:45:02;;;;;;;2.83;2.17;;;;;;;;;;10565846;27;20050;-77
2024/02/16 11:50:05;;;;;;;2.58;1.90;;;;;;;;;;10553983;27;20605;-77
2024/02/16 11:55:08;;;;;;;2.53;2.33;;;;;;;;;;10562607;27;20035;-77
2024/02/16 12:00:14;;;;;;;2.80;2.30;;;;;;;;;;10559631;27;20035;-77
2024/02/16 12:05:18;;;;;;;4.72;2.30;;;;;;;;;;10551999;28;20051;-77
2024/02/16 12:10:23;;;;;;;5.78;2.40;;;;;;;;;;10553602;27;20108;-76
2024/02/16 12:15:27;;;;;;;3.78;2.25;;;;;;;;;;10558877;27;20078;-78
2024/02/16 12:20:31;;;;;;;5.13;1.83;;;;;;;;;;10551325;28;20059;-76
2024/02/16 12:25:33;;;;;;;2.67;1.50;;;;;;;;;;10551572;27;20055;-77
2024/02/16 12:30:41;;;;;;;2.25;1.40;;;;;;;;;;10537879;28;20580;-79
2024/02/16 12:35:47;;;;;;;2.95;1.80;;;;;;;;;;10561305;27;20036;-77
2024/02/16 12:40:54;;;;;;;5.72;1.50;;;;;;;;;;10544554;27;20134;-78
2024/02/16 12:46:01;;;;;;;3.45;1.90;;;;;;;;;;10545551;28;20073;-78
2024/02/16 12:51:07;;;;;;;3.38;1.85;;;;;;;;;;10553720;27;20119;-75
2024/02/16 12:56:11;;;;;;;8.18;2.03;;;;;;;;;;10546683;27;20623;-76
2024/02/16 13:01:17;;;;;;;7.97;2.20;;;;;;;;;;10562544;27;20130;-75
2024/02/16 13:06:28;;;;;;;2.47;1.77;;;;;;;;;;10551572;28;20051;-75
2024/02/16 13:11:33;;;;;;;4.10;1.70;;;;;;;;;;10560839;27;20040;-76
2024/02/16 13:16:38;;;;;;;6.93;2.00;;;;;;;;;;10552684;27;20044;-76
2024/02/16 13:21:41;;;;;;;3.72;1.70;;;;;;;;;;10558314;27;20097;-76
2024/02/16 13:26:45;;;;;;;3.00;1.88;;;;;;;;;;10546842;28;20059;-75
2024/02/16 13:31:49;;;;;;;5.32;2.20;;;;;;;;;;10547482;28;20485;-76
2024/02/16 13:36:52;;;;;;;3.10;1.80;;;;;;;;;;10549751;28;20027;-76
2024/02/16 13:41:56;;;;;;;3.90;2.03;;;;;;;;;;10560212;28;20097;-74
2024/02/16 13:47:01;;;;;;;6.10;2.05;;;;;;;;;;10550836;28;20657;-75
2024/02/16 13:52:04;;;;;;;5.93;2.10;;;;;;;;;;10547801;28;20201;-76
2024/02/16 13:57:07;;;;;;;5.75;1.80;;;;;;;;;;10553696;28;20131;-75
2024/02/16 14:02:12;;;;;;;5.93;1.83;;;;;;;;;;10558521;28;20497;-75
2024/02/16 14:07:19;;;;;;;3.22;1.90;;;;;;;;;;10546547;28;20537;-76
2024/02/16 14:12:21;;;;;;;5.65;1.92;;;;;;;;;;10551080;28;20112;-76
2024/02/16 14:17:25;;;;;;;3.78;2.03;;;;;;;;;;10556149;28;20046;-74
2024/02/16 14:22:28;;;;;;;5.00;2.10;;;;;;;;;;10543511;28;20046;-75
2024/02/16 14:27:31;;;;;;;4.57;2.53;;;;;;;;;;10551469;28;20101;-76
2024/02/16 14:32:35;;;;;;;5.57;1.73;;;;;;;;;;10559929;28;20052;-76
2024/02/16 14:37:38;;;;;;;4.22;1.77;;;;;;;;;;10550704;28;20131;-76
2024/02/16 14:42:41;;;;;;;;;;;;;;;;;;10556094;27;20493;-76
2024/02/16 14:47:45;;;;;;;2.63;1.60;;;;;;;;;;10538497;27;19923;-76
2024/02/16 14:52:48;;;;;;;5.95;2.13;;;;;;;;;;10557703;27;20044;-76
2024/02/16 14:57:51;;;;;;;2.80;1.65;;;;;;;;;;10543315;27;20465;-76
2024/02/16 15:02:55;;;;;;;3.35;1.80;;;;;;;;;;10567533;27;20044;-76
2024/02/16 15:07:58;;;;;;;3.72;1.20;;;;;;;;;;10560246;27;20123;-76
2024/02/16 15:13:01;;;;;;;3.63;1.80;;;;;;;;;;10559116;27;20105;-76
2024/02/16 15:18:05;;;;;;;3.03;1.67;;;;;;;;;;10542774;27;20164;-76
2024/02/16 15:23:09;;;;;;;4.18;1.63;;;;;;;;;;10557333;27;20040;-75
2024/02/16 15:28:13;;;;;;;5.07;1.70;;;;;;;;;;10562943;27;20058;-75
2024/02/16 15:33:17;;;;;;;4.47;1.48;;;;;;;;;;10551451;27;20066;-76
2024/02/16 15:38:20;;;;;;;5.93;1.80;;;;;;;;;;10561091;27;20035;-75
2024/02/16 15:43:22;;;;;;;4.73;1.60;;;;;;;;;;10559363;27;20440;-74
2024/02/16 15:48:28;;;;;;;2.47;1.30;;;;;;;;;;10560557;28;20040;-74
2024/02/16 15:53:31;;;;;;;4.10;1.65;;;;;;;;;;10559390;27;20042;-75
2024/02/16 15:58:34;;;;;;;8.18;2.10;;;;;;;;;;10558306;27;20039;-76
2024/02/16 16:03:38;;;;;;;1.77;0.88;;;;;;;;;;10550168;28;20051;-76
2024/02/16 16:08:42;;;;;;;3.00;1.52;;;;;;;;;;10560927;28;20557;-77
2024/02/16 16:13:44;;;;;;;2.50;1.33;;;;;;;;;;10560989;27;20531;-74
2024/02/16 16:18:48;;;;;;;3.85;1.25;;;;;;;;;;10557154;28;20130;-75
2024/02/16 16:23:51;;;;;;;2.10;1.40;;;;;;;;;;10558716;28;20044;-75
2024/02/16 16:28:54;;;;;;;6.68;1.63;;;;;;;;;;10549857;28;20076;-75
2024/02/16 16:33:58;;;;;;;5.25;1.75;;;;;;;;;;10554692;27;20051;-75
2024/02/16 16:39:03;;;;;;;5.60;2.08;;;;;;;;;;10537498;28;20031;-76
2024/02/16 16:44:06;;;;;;;6.05;1.77;;;;;;;;;;10551408;27;20051;-77
2024/02/16 16:49:10;;;;;;;5.55;1.67;;;;;;;;;;10562798;27;20047;-76
2024/02/16 16:54:13;;;;;;;5.20;1.70;;;;;;;;;;10559273;27;20617;-76
2024/02/16 16:59:16;;;;;;;5.43;1.60;;;;;;;;;;10555282;27;20499;-75
2024/02/16 17:04:21;;;;;;;4.18;1.75;;;;;;;;;;10564551;27;20143;-75
2024/02/16 17:09:24;;;;;;;5.25;2.20;;;;;;;;;;10562592;27;20048;-76
2024/02/16 17:14:30;;;;;;;1.83;0.97;;;;;;;;;;10548184;28;20040;-76
2024/02/16 17:19:34;;;;;;;4.75;2.13;;;;;;;;;;10550040;27;20440;-76
2024/02/16 17:24:37;;;;;;;6.18;2.30;;;;;;;;;;10548913;28;20047;-76
2024/02/16 17:29:42;;;;;;;6.30;2.30;;;;;;;;;;10549807;28;20036;-76
2024/02/16 17:34:46;;;;;;;7.30;2.60;;;;;;;;;;10555765;28;20047;-75
2024/02/16 17:39:51;;;;;;;5.90;2.45;;;;;;;;;;10566672;28;20040;-74
2024/02/16 17:44:55;;;;;;;5.97;2.90;;;;;;;;;;10552543;28;20082;-75
2024/02/16 17:49:59;;;;;;;6.43;2.45;;;;;;;;;;10537624;28;20127;-75
2024/02/16 17:55:02;;;;;;;4.82;2.42;;;;;;;;;;10551988;28;20404;-74
2024/02/16 18:00:10;;;;;;;7.53;2.83;;;;;;;;;;10551579;28;20497;-75
2024/02/16 18:05:14;;;;;;;7.28;2.90;;;;;;;;;;10554952;28;20036;-76
2024/02/16 18:10:17;;;;;;;5.78;2.60;;;;;;;;;;10553662;28;20543;-74
2024/02/16 18:15:21;;;;;;;12.10;3.67;;;;;;;;;;10556531;28;20043;-76
2024/02/16 18:20:25;;;;;;;8.52;3.40;;;;;;;;;;10564397;27;20059;-75
2024/02/16 18:25:28;;;;;;;7.65;3.30;;;;;;;;;;10562982;27;20457;-75
2024/02/16 18:30:31;;;;;;;10.52;3.25;;;;;;;;;;10554339;28;20371;-76
2024/02/16 18:35:36;;;;;;;7.63;3.17;;;;;;;;;;10557844;28;20049;-76
2024/02/16 18:40:39;;;;;;;7.43;3.20;;;;;;;;;;10567186;28;20051;-76
2024/02/16 18:45:41;;;;;;;9.93;3.80;;;;;;;;;;10562961;28;20111;-75
2024/02/16 18:50:46;;;;;;;6.07;3.08;;;;;;;;;;10549875;27;20146;-76
2024/02/16 18:55:49;;;;;;;7.50;3.08;;;;;;;;;;10557127;27;20106;-76
2024/02/16 19:00:52;;;;;;;10.40;3.47;;;;;;;;;;10564123;27;20187;-75
2024/02/16 19:05:56;;;;;;;7.47;3.10;;;;;;;;;;10533329;28;20177;-75
2024/02/16 19:10:59;;;;;;;6.00;2.67;;;;;;;;;;10566631;27;20050;-74
2024/02/16 19:16:03;;;;;;;10.00;3.73;;;;;;;;;;10563763;27;20035;-75
2024/02/16 19:21:08;;;;;;;11.52;3.25;;;;;;;;;;10564811;27;20058;-75
2024/02/16 19:26:10;;;;;;;8.52;2.92;;;;;;;;;;10565556;27;20044;-75
2024/02/16 19:31:14;;;;;;;8.10;3.30;;;;;;;;;;10559579;27;20068;-74
2024/02/16 19:36:18;;;;;;;8.53;2.70;;;;;;;;;;10563577;27;20067;-75
2024/02/16 19:41:21;;;;;;;6.63;3.00;;;;;;;;;;10574794;27;20055;-78
2024/02/16 19:46:24;;;;;;;6.60;3.47;;;;;;;;;;10557363;27;20426;-77
2024/02/16 19:51:29;;;;;;;7.13;3.70;;;;;;;;;;10554265;28;20043;-74
2024/02/16 19:56:32;;;;;;;7.88;2.92;;;;;;;;;;10553687;27;20043;-74
2024/02/16 20:01:35;;;;;;;8.07;3.60;;;;;;;;;;10552259;28;20055;-76
2024/02/16 20:06:39;;;;;;;8.80;3.60;;;;;;;;;;10555037;27;20046;-76
2024/02/16 20:11:42;;;;;;;5.43;2.75;;;;;;;;;;10548196;28;20447;-74
2024/02/16 20:16:45;;;;;;;8.70;3.13;;;;;;;;;;10564999;27;20051;-75
2024/02/16 20:21:49;;;;;;;10.13;4.05;;;;;;;;;;10560272;28;20086;-75
2024/02/16 20:26:54;;;;;;;10.15;3.53;;;;;;;;;;10557695;27;20099;-75
2024/02/16 20:31:57;;;;;;;6.78;3.10;;;;;;;;;;10557286;27;20039;-76
2024/02/16 20:37:01;;;;;;;10.73;3.90;;;;;;;;;;10547402;27;20082;-75
2024/02/16 20:42:04;;;;;;;11.45;3.70;;;;;;;;;;10565139;27;20044;-73
2024/02/16 20:47:07;;;;;;;7.80;3.58;;;;;;;;;;10558942;27;20044;-76
2024/02/16 20:52:11;;;;;;;9.23;3.72;;;;;;;;;;10560935;27;20047;-76
2024/02/16 20:57:14;;;;;;;9.40;3.75;;;;;;;;;;10550998;28;20523;-74
2024/02/16 21:02:17;;;;;;;8.93;3.72;;;;;;;;;;10556319;28;20044;-75
2024/02/16 21:07:23;;;;;;;8.88;3.72;;;;;;;;;;10549054;28;20071;-75
2024/02/16 21:12:28;;;;;;;11.35;3.50;;;;;;;;;;10561528;27;20489;-76
2024/02/16 21:17:31;;;;;;;11.25;3.80;;;;;;;;;;10569885;27;20040;-75
2024/02/16 21:22:35;;;;;;;12.85;3.78;;;;;;;;;;10558256;27;20044;-75
2024/02/16 21:27:39;;;;;;;9.32;3.20;;;;;;;;;;10556079;27;20036;-76
2024/02/16 21:32:43;;;;;;;10.13;3.08;;;;;;;;;;10550954;28;20135;-75
2024/02/16 21:37:47;;;;;;;5.85;3.03;;;;;;;;;;10558282;28;20526;-74
2024/02/16 21:42:50;;;;;;;9.93;3.33;;;;;;;;;;10554979;28;20384;-74
2024/02/16 21:47:53;;;;;;;10.70;4.00;;;;;;;;;;10555540;28;20128;-75
2024/02/16 21:52:57;;;;;;;8.40;3.28;;;;;;;;;;10557330;27;20127;-76
2024/02/16 21:58:01;;;;;;;12.25;4.63;;;;;;;;;;10565154;27;20517;-75
2024/02/16 22:03:05;;;;;;;9.32;3.70;;;;;;;;;;10567195;27;20397;-75
2024/02/16 22:08:07;;;;;;;;;;;;;;;;;;10557205;27;20083;-75
2024/02/16 22:13:12;;;;;;;8.68;3.90;;;;;;;;;;10571784;27;20369;-75
2024/02/16 22:18:14;;;;;;;12.15;4.13;;;;;;;;;;10552651;28;20097;-75
2024/02/16 22:23:18;;;;;;;13.13;3.90;;;;;;;;;;10571763;27;20031;-78
2024/02/16 22:28:23;;;;;;;6.85;3.38;;;;;;;;;;10565350;27;20062;-75
2024/02/16 22:33:26;;;;;;;13.27;4.38;;;;;;;;;;10573221;27;20051;-78
2024/02/16 22:38:32;;;;;;;8.00;3.88;;;;;;;;;;10542557;27;20039;-75
2024/02/16 22:43:36;;;;;;;9.90;4.18;;;;;;;;;;10568178;27;20039;-74
2024/02/16 22:48:39;;;;;;;8.00;4.15;;;;;;;;;;10557830;27;20067;-75
2024/02/16 22:53:42;;;;;;;9.70;4.43;;;;;;;;;;10568035;27;20040;-75
2024/02/16 22:58:46;;;;;;;13.50;4.13;;;;;;;;;;10562105;27;20039;-75
2024/02/16 23:03:49;;;;;;;6.60;3.80;;;;;;;;;;10562071;27;20132;-76
2024/02/16 23:08:53;;;;;;;9.77;4.05;;;;;;;;;;10561849;27;20501;-75
2024/02/16 23:13:57;;;;;;;10.50;4.50;;;;;;;;;;10563230;27;20044;-75
2024/02/16 23:18:59;;;;;;;;;;;;;;;;;;10566128;27;20047;-75
2024/02/16 23:24:02;;;;;;;9.60;4.10;;;;;;;;;;10566542;27;19926;-75
2024/02/16 23:29:06;;;;;;;9.55;3.92;;;;;;;;;;10553262;27;20039;-76
2024/02/16 23:34:10;;;;;;;10.70;4.00;;;;;;;;;;10563352;27;20508;-76
2024/02/16 23:39:12;;;;;;;9.27;4.50;;;;;;;;;;10556875;28;20061;-76
2024/02/16 23:44:17;;;;;;;10.10;4.10;;;;;;;;;;10560996;27;20058;-76
2024/02/16 23:49:19;;;;;;;;;;;;;;;;;;10560010;28;20032;-75
2024/02/16 23:54:22;;;;;;;10.07;4.55;;;;;;;;;;10559622;27;19962;-75
2024/02/16 23:59:26;;;;;;;10.60;4.63;;;;;;;;;;10571373;27;20046;-74
